createdAt,value
2019-03-06T00:00:36.439Z,5.20
2019-03-06T00:03:05.194Z,5.20
2019-03-06T00:05:33.613Z,5.10
2019-03-06T00:08:02.119Z,5.10
2019-03-06T00:10:31.376Z,5.10
2019-03-06T00:12:59.890Z,5.10
2019-03-06T00:15:28.560Z,5.10
2019-03-06T00:17:57.017Z,5.10
2019-03-06T00:20:25.503Z,5.10
2019-03-06T00:22:53.927Z,5.00
2019-03-06T00:25:22.425Z,5.00
2019-03-06T00:27:50.936Z,5.00
2019-03-06T00:30:20.362Z,5.00
2019-03-06T00:32:48.828Z,5.00
2019-03-06T00:35:33.889Z,5.00
2019-03-06T00:38:02.328Z,5.00
2019-03-06T00:40:32.943Z,5.00
2019-03-06T00:43:01.365Z,5.00
2019-03-06T00:45:29.790Z,5.00
2019-03-06T00:47:58.217Z,5.00
2019-03-06T00:50:26.642Z,4.90
2019-03-06T00:52:55.073Z,4.90
2019-03-06T00:55:23.516Z,4.90
2019-03-06T00:57:51.968Z,4.90
2019-03-06T01:00:27.424Z,4.90
2019-03-06T01:02:56.011Z,4.80
2019-03-06T01:05:44.049Z,4.80
2019-03-06T01:08:12.560Z,4.80
2019-03-06T01:10:41.150Z,4.80
2019-03-06T01:13:09.721Z,4.80
2019-03-06T01:15:38.169Z,4.80
2019-03-06T01:18:06.586Z,4.70
2019-03-06T01:20:35.093Z,4.80
2019-03-06T01:23:03.981Z,4.80
2019-03-06T01:25:32.482Z,4.70
2019-03-06T01:28:01.112Z,4.70
2019-03-06T01:30:29.623Z,4.70
2019-03-06T01:33:05.689Z,4.80
2019-03-06T01:35:38.761Z,4.70
2019-03-06T01:38:25.355Z,4.70
2019-03-06T01:41:04.241Z,4.70
2019-03-06T01:43:34.347Z,4.70
2019-03-06T01:46:02.857Z,4.70
2019-03-06T01:48:31.266Z,4.70
2019-03-06T01:50:59.703Z,4.60
2019-03-06T01:53:28.122Z,4.60
2019-03-06T01:55:56.569Z,4.60
2019-03-06T01:58:25.165Z,4.50
2019-03-06T02:00:54.756Z,4.60
2019-03-06T02:03:23.349Z,4.60
2019-03-06T02:05:51.786Z,4.60
2019-03-06T02:08:20.224Z,4.60
2019-03-06T02:10:48.890Z,4.60
2019-03-06T02:13:20.424Z,4.60
2019-03-06T02:15:48.840Z,4.50
2019-03-06T02:18:17.281Z,4.50
2019-03-06T02:20:45.772Z,4.50
2019-03-06T02:23:14.400Z,4.50
2019-03-06T02:25:42.853Z,4.50
2019-03-06T02:28:11.330Z,4.50
2019-03-06T02:30:39.822Z,4.60
2019-03-06T02:33:08.245Z,4.50
2019-03-06T02:35:36.990Z,4.60
2019-03-06T02:38:05.480Z,4.60
2019-03-06T02:40:33.920Z,4.50
2019-03-06T02:43:02.350Z,4.50
2019-03-06T02:45:30.789Z,4.50
2019-03-06T02:47:59.232Z,4.50
2019-03-06T02:50:27.668Z,4.50
2019-03-06T02:52:56.110Z,4.50
2019-03-06T02:55:24.530Z,4.50
2019-03-06T02:57:54.701Z,4.50
2019-03-06T03:00:36.837Z,4.50
2019-03-06T03:03:07.643Z,4.40
2019-03-06T03:05:37.734Z,4.40
2019-03-06T03:08:06.243Z,4.50
2019-03-06T03:10:34.675Z,4.50
2019-03-06T03:13:03.312Z,4.50
2019-03-06T03:15:31.753Z,4.50
2019-03-06T03:18:00.188Z,4.50
2019-03-06T03:20:28.610Z,4.50
2019-03-06T03:22:57.035Z,4.50
2019-03-06T03:25:25.774Z,4.50
2019-03-06T03:27:54.197Z,4.50
2019-03-06T03:30:22.615Z,4.50
2019-03-06T03:32:51.069Z,4.50
2019-03-06T03:35:19.580Z,4.50
2019-03-06T03:37:48.149Z,4.60
2019-03-06T03:40:17.037Z,4.50
2019-03-06T03:42:45.479Z,4.60
2019-03-06T03:45:15.916Z,4.50
2019-03-06T03:47:44.421Z,4.50
2019-03-06T03:50:12.948Z,4.50
2019-03-06T03:52:41.770Z,4.50
2019-03-06T03:55:17.580Z,4.60
2019-03-06T03:57:46.024Z,4.60
2019-03-06T04:00:17.253Z,4.60
2019-03-06T04:02:45.829Z,4.60
2019-03-06T04:05:14.400Z,4.60
2019-03-06T04:07:42.823Z,4.60
2019-03-06T04:10:13.590Z,4.60
2019-03-06T04:12:42.081Z,4.50
2019-03-06T04:15:12.713Z,4.50
2019-03-06T04:17:41.155Z,4.50
2019-03-06T04:20:14.106Z,4.50
2019-03-06T04:22:42.616Z,4.40
2019-03-06T04:25:11.500Z,4.40
2019-03-06T04:27:40.068Z,4.40
2019-03-06T04:30:19.823Z,4.40
2019-03-06T04:32:48.336Z,4.40
2019-03-06T04:35:16.827Z,4.40
2019-03-06T04:37:45.286Z,4.40
2019-03-06T04:40:14.983Z,4.40
2019-03-06T04:42:43.479Z,4.40
2019-03-06T04:45:18.916Z,4.30
2019-03-06T04:47:47.372Z,4.30
2019-03-06T04:50:16.155Z,4.30
2019-03-06T04:52:44.764Z,4.40
2019-03-06T04:55:16.387Z,4.30
2019-03-06T04:57:44.815Z,4.30
2019-03-06T05:00:22.128Z,4.30
2019-03-06T05:02:50.830Z,4.30
2019-03-06T05:05:19.277Z,4.30
2019-03-06T05:07:47.720Z,4.30
2019-03-06T05:10:16.153Z,4.30
2019-03-06T05:12:44.604Z,4.30
2019-03-06T05:15:15.051Z,4.20
2019-03-06T05:17:45.254Z,4.30
2019-03-06T05:20:13.761Z,4.30
2019-03-06T05:22:42.177Z,4.30
2019-03-06T05:25:10.630Z,4.30
2019-03-06T05:27:39.078Z,4.30
2019-03-06T05:30:10.392Z,4.30
2019-03-06T05:32:38.854Z,4.30
2019-03-06T05:35:22.659Z,4.30
2019-03-06T05:38:03.161Z,4.30
2019-03-06T05:40:31.586Z,4.30
2019-03-06T05:43:00.042Z,4.40
2019-03-06T05:45:28.473Z,4.40
2019-03-06T05:47:56.925Z,4.40
2019-03-06T05:50:25.371Z,4.40
2019-03-06T05:52:53.866Z,4.40
2019-03-06T05:55:22.297Z,4.40
2019-03-06T05:57:50.738Z,4.30
2019-03-06T06:00:20.801Z,4.40
2019-03-06T06:02:49.270Z,4.40
2019-03-06T06:05:17.725Z,4.50
2019-03-06T06:07:46.179Z,4.40
2019-03-06T06:10:15.494Z,4.40
2019-03-06T06:12:43.952Z,4.40
2019-03-06T06:15:16.300Z,4.50
2019-03-06T06:17:44.820Z,4.50
2019-03-06T06:20:16.921Z,4.50
2019-03-06T06:22:47.019Z,4.50
2019-03-06T06:25:15.682Z,4.50
2019-03-06T06:27:44.118Z,4.50
2019-03-06T06:30:13.847Z,4.60
2019-03-06T06:32:42.302Z,4.60
2019-03-06T06:35:13.688Z,4.60
2019-03-06T06:37:42.277Z,4.60
2019-03-06T06:40:14.675Z,4.70
2019-03-06T06:42:43.111Z,4.70
2019-03-06T06:45:16.304Z,4.70
2019-03-06T06:48:13.040Z,4.70
2019-03-06T06:51:01.497Z,4.80
2019-03-06T06:53:52.077Z,4.80
2019-03-06T06:56:44.106Z,4.80
2019-03-06T06:59:30.768Z,4.80
2019-03-06T07:02:35.332Z,4.80
2019-03-06T07:05:33.083Z,4.90
2019-03-06T07:08:12.477Z,4.90
2019-03-06T07:10:48.666Z,4.90
2019-03-06T07:13:18.738Z,4.90
2019-03-06T07:15:48.829Z,4.90
2019-03-06T07:18:35.227Z,4.90
2019-03-06T07:21:08.125Z,5.00
2019-03-06T07:23:44.002Z,5.00
2019-03-06T07:26:14.280Z,5.10
2019-03-06T07:28:47.248Z,5.10
2019-03-06T07:31:26.176Z,5.10
2019-03-06T07:34:05.826Z,5.20
2019-03-06T07:36:47.941Z,5.20
2019-03-06T07:39:22.141Z,5.20
2019-03-06T07:45:48.875Z,5.30
2019-03-06T07:48:27.613Z,5.30
2019-03-06T07:51:06.718Z,5.30
2019-03-06T07:54:02.653Z,5.40
2019-03-06T07:56:32.817Z,5.30
2019-03-06T07:59:01.263Z,5.30
2019-03-06T08:01:35.577Z,5.50
2019-03-06T08:04:09.503Z,5.50
2019-03-06T08:06:38.375Z,5.60
2019-03-06T08:09:09.115Z,5.60
2019-03-06T08:11:39.186Z,5.60
2019-03-06T08:14:11.953Z,5.60
2019-03-06T08:16:47.989Z,5.60
2019-03-06T08:19:36.366Z,5.70
2019-03-06T08:22:09.372Z,5.70
2019-03-06T08:24:39.464Z,5.90
2019-03-06T08:27:07.985Z,5.90
2019-03-06T08:29:36.413Z,5.90
2019-03-06T08:32:06.668Z,5.90
2019-03-06T08:34:35.282Z,5.90
2019-03-06T08:37:03.983Z,5.90
2019-03-06T08:39:32.405Z,6.00
2019-03-06T08:42:00.838Z,6.00
2019-03-06T08:44:29.277Z,6.00
2019-03-06T08:47:05.367Z,6.10
2019-03-06T08:49:50.589Z,6.10
2019-03-06T08:52:23.558Z,6.20
2019-03-06T08:54:53.801Z,6.20
2019-03-06T08:57:32.455Z,6.20
2019-03-06T09:00:14.649Z,6.20
2019-03-06T09:02:48.277Z,6.20
2019-03-06T09:05:18.422Z,6.20
2019-03-06T09:07:57.601Z,6.30
2019-03-06T09:10:40.020Z,6.30
2019-03-06T09:13:18.900Z,6.40
2019-03-06T09:15:49.070Z,6.30
2019-03-06T09:18:21.586Z,6.40
2019-03-06T09:20:51.653Z,6.50
2019-03-06T09:23:40.034Z,6.50
2019-03-06T09:26:19.185Z,6.60
2019-03-06T09:29:01.058Z,6.60
2019-03-06T09:31:31.674Z,6.70
2019-03-06T09:34:10.403Z,6.70
2019-03-06T09:36:40.576Z,6.90
2019-03-06T09:39:22.541Z,6.90
2019-03-06T09:41:55.685Z,7.00
2019-03-06T09:44:25.952Z,7.10
2019-03-06T09:46:56.019Z,7.10
2019-03-06T09:49:38.197Z,7.10
2019-03-06T09:55:27.711Z,7.20
2019-03-06T09:57:57.945Z,7.30
2019-03-06T10:00:44.334Z,7.30
2019-03-06T10:03:14.422Z,7.30
2019-03-06T10:05:44.481Z,7.30
2019-03-06T10:08:14.561Z,7.40
2019-03-06T10:10:57.236Z,7.50
2019-03-06T10:13:27.942Z,7.50
2019-03-06T10:16:13.565Z,7.60
2019-03-06T10:18:43.656Z,7.60
2019-03-06T10:21:12.094Z,7.60
2019-03-06T10:23:40.522Z,7.60
2019-03-06T10:26:08.966Z,7.70
2019-03-06T10:28:37.463Z,7.80
2019-03-06T10:31:06.181Z,7.90
2019-03-06T10:33:34.714Z,7.90
2019-03-06T10:36:03.600Z,7.90
2019-03-06T10:38:32.116Z,7.90
2019-03-06T10:41:00.604Z,7.90
2019-03-06T10:43:29.130Z,8.00
2019-03-06T10:45:57.928Z,8.10
2019-03-06T10:48:26.530Z,8.20
2019-03-06T10:50:55.059Z,8.10
2019-03-06T10:53:23.547Z,8.10
2019-03-06T10:55:52.126Z,8.20
2019-03-06T10:58:20.730Z,8.30
2019-03-06T11:00:50.878Z,8.50
2019-03-06T11:03:19.550Z,8.50
2019-03-06T11:05:49.081Z,8.60
2019-03-06T11:08:18.329Z,8.70
2019-03-06T11:10:46.910Z,8.90
2019-03-06T11:13:15.516Z,8.90
2019-03-06T11:15:44.176Z,8.90
2019-03-06T11:18:12.913Z,9.00
2019-03-06T11:20:41.880Z,9.00
2019-03-06T11:23:11.742Z,9.10
2019-03-06T11:25:41.116Z,9.10
2019-03-06T11:28:30.480Z,9.20
2019-03-06T11:31:00.225Z,9.20
2019-03-06T11:33:28.752Z,9.10
2019-03-06T11:35:58.913Z,9.30
2019-03-06T11:38:28.041Z,9.40
2019-03-06T11:40:57.196Z,9.40
2019-03-06T11:43:25.723Z,9.40
2019-03-06T11:45:54.298Z,9.50
2019-03-06T11:48:23.376Z,9.50
2019-03-06T11:50:52.137Z,9.50
2019-03-06T11:53:20.790Z,9.60
2019-03-06T11:55:50.215Z,9.60
2019-03-06T11:58:19.266Z,9.60
2019-03-06T12:00:48.000Z,9.70
2019-03-06T12:03:18.798Z,9.70
2019-03-06T12:05:48.053Z,9.80
2019-03-06T12:08:18.208Z,9.80
2019-03-06T12:10:46.853Z,9.90
2019-03-06T12:13:16.993Z,9.90
2019-03-06T12:15:50.393Z,10.00
2019-03-06T12:18:21.053Z,10.00
2019-03-06T12:20:49.741Z,10.00
2019-03-06T12:23:18.309Z,10.00
2019-03-06T12:25:46.823Z,10.00
2019-03-06T12:28:16.297Z,9.90
2019-03-06T12:30:44.962Z,10.00
2019-03-06T12:33:21.686Z,10.00
2019-03-06T12:35:50.285Z,10.00
2019-03-06T12:38:18.876Z,10.00
2019-03-06T12:40:47.453Z,10.00
2019-03-06T12:43:15.977Z,10.00
2019-03-06T12:45:47.561Z,10.00
2019-03-06T12:48:17.797Z,10.10
2019-03-06T12:50:53.940Z,10.10
2019-03-06T12:53:16.385Z,10.20
2019-03-06T12:55:44.840Z,10.20
2019-03-06T12:58:13.388Z,10.10
2019-03-06T13:00:41.909Z,10.20
2019-03-06T13:03:10.361Z,10.20
2019-03-06T13:05:38.874Z,10.20
2019-03-06T13:08:07.289Z,10.20
2019-03-06T13:10:35.742Z,10.30
2019-03-06T13:13:04.328Z,10.30
2019-03-06T13:15:33.032Z,10.30
2019-03-06T13:18:01.565Z,10.40
2019-03-06T13:20:30.085Z,10.40
2019-03-06T13:22:58.608Z,10.40
2019-03-06T13:25:27.114Z,10.40
2019-03-06T13:27:57.432Z,10.50
2019-03-06T13:30:27.309Z,10.60
2019-03-06T13:33:00.364Z,10.60
2019-03-06T13:35:30.253Z,10.60
2019-03-06T13:37:58.776Z,10.50
2019-03-06T13:40:27.289Z,10.50
2019-03-06T13:42:55.800Z,10.60
2019-03-06T13:45:24.309Z,10.70
2019-03-06T13:47:52.832Z,10.70
2019-03-06T13:50:22.096Z,10.60
2019-03-06T13:52:50.692Z,10.70
2019-03-06T13:55:23.838Z,10.80
2019-03-06T13:57:52.923Z,10.80
2019-03-06T14:00:23.157Z,10.80
2019-03-06T14:02:54.444Z,10.80
2019-03-06T14:05:23.881Z,10.80
2019-03-06T14:07:56.367Z,10.90
2019-03-06T14:10:23.797Z,10.80
2019-03-06T14:12:52.741Z,10.90
2019-03-06T14:15:22.090Z,10.90
2019-03-06T14:17:50.852Z,10.90
2019-03-06T14:20:23.275Z,10.90
2019-03-06T14:22:52.110Z,10.90
2019-03-06T14:25:21.717Z,11.00
2019-03-06T14:27:50.240Z,11.00
2019-03-06T14:30:22.037Z,11.20
2019-03-06T14:32:50.719Z,11.20
2019-03-06T14:35:19.621Z,11.20
2019-03-06T14:37:48.134Z,11.20
2019-03-06T14:40:28.186Z,11.20
2019-03-06T14:42:57.173Z,11.20
2019-03-06T14:45:25.830Z,11.20
2019-03-06T14:47:54.520Z,11.20
2019-03-06T14:50:23.389Z,11.20
2019-03-06T14:52:52.430Z,11.30
2019-03-06T14:55:21.110Z,11.30
2019-03-06T14:57:49.630Z,11.30
2019-03-06T15:00:20.074Z,11.30
2019-03-06T15:02:48.892Z,11.20
2019-03-06T15:05:18.855Z,11.30
2019-03-06T15:07:48.017Z,11.40
2019-03-06T15:10:18.444Z,11.40
2019-03-06T15:12:47.190Z,11.30
2019-03-06T15:15:20.464Z,11.30
2019-03-06T15:17:49.211Z,11.40
2019-03-06T15:20:23.221Z,11.40
2019-03-06T15:22:53.488Z,11.40
2019-03-06T15:25:23.252Z,11.30
2019-03-06T15:27:51.773Z,11.30
2019-03-06T15:30:20.728Z,11.30
2019-03-06T15:32:49.406Z,11.20
2019-03-06T15:35:18.322Z,11.30
2019-03-06T15:37:47.149Z,11.30
2019-03-06T15:40:47.037Z,11.30
2019-03-06T15:43:16.952Z,11.40
2019-03-06T15:45:46.929Z,11.30
2019-03-06T15:48:17.265Z,11.30
2019-03-06T15:50:46.055Z,11.30
2019-03-06T15:53:24.494Z,11.20
2019-03-06T15:55:47.852Z,11.20
2019-03-06T15:58:16.392Z,11.10
2019-03-06T16:00:46.583Z,11.10
2019-03-06T16:03:15.332Z,11.10
2019-03-06T16:05:44.092Z,11.10
2019-03-06T16:08:13.948Z,11.00
2019-03-06T16:10:42.896Z,11.00
2019-03-06T16:13:11.558Z,10.90
2019-03-06T16:15:42.837Z,10.90
2019-03-06T16:18:11.496Z,10.90
2019-03-06T16:20:40.264Z,10.90
2019-03-06T16:23:08.860Z,10.90
2019-03-06T16:25:39.992Z,10.90
2019-03-06T16:28:07.889Z,10.90
2019-03-06T16:30:36.489Z,10.80
2019-03-06T16:33:05.190Z,10.70
2019-03-06T16:35:33.753Z,10.70
2019-03-06T16:38:05.278Z,10.80
2019-03-06T16:40:33.866Z,10.70
2019-03-06T16:43:02.437Z,10.70
2019-03-06T16:45:31.075Z,10.70
2019-03-06T16:48:00.636Z,10.70
2019-03-06T16:50:29.205Z,10.70
2019-03-06T16:52:57.933Z,10.70
2019-03-06T16:55:27.298Z,10.70
2019-03-06T16:57:56.622Z,10.60
2019-03-06T17:00:32.456Z,10.60
2019-03-06T17:03:40.135Z,10.60
2019-03-06T17:06:11.630Z,10.70
2019-03-06T17:08:40.082Z,10.80
2019-03-06T17:11:09.680Z,10.80
2019-03-06T17:13:38.462Z,10.80
2019-03-06T17:16:07.283Z,10.90
2019-03-06T17:18:35.811Z,10.80
2019-03-06T17:21:04.381Z,10.80
2019-03-06T17:23:32.900Z,10.90
2019-03-06T17:26:01.473Z,11.00
2019-03-06T17:28:30.341Z,10.70
2019-03-06T17:30:58.836Z,10.60
2019-03-06T17:33:27.410Z,10.50
2019-03-06T17:35:55.929Z,10.50
2019-03-06T17:38:24.533Z,10.40
2019-03-06T17:40:53.095Z,10.40
2019-03-06T17:43:21.872Z,10.40
2019-03-06T17:45:51.218Z,10.30
2019-03-06T17:48:19.990Z,10.30
2019-03-06T17:50:48.591Z,10.40
2019-03-06T17:53:17.114Z,10.40
2019-03-06T17:55:45.614Z,10.40
2019-03-06T17:58:14.120Z,10.40
2019-03-06T18:00:44.262Z,10.30
2019-03-06T18:03:20.021Z,10.30
2019-03-06T18:05:48.525Z,10.20
2019-03-06T18:08:17.095Z,10.10
2019-03-06T18:10:45.600Z,10.20
2019-03-06T18:13:14.110Z,10.20
2019-03-06T18:15:44.426Z,10.20
2019-03-06T18:18:12.921Z,10.20
2019-03-06T18:20:41.435Z,10.10
2019-03-06T18:23:10.125Z,10.10
2019-03-06T18:25:38.745Z,10.10
2019-03-06T18:28:07.488Z,10.10
2019-03-06T18:30:36.153Z,10.10
2019-03-06T18:33:04.714Z,10.00
2019-03-06T18:35:33.341Z,10.00
2019-03-06T18:38:01.929Z,10.00
2019-03-06T18:40:31.452Z,10.00
2019-03-06T18:43:00.328Z,10.00
2019-03-06T18:45:28.936Z,10.00
2019-03-06T18:47:57.458Z,10.00
2019-03-06T18:50:25.982Z,10.00
2019-03-06T18:52:54.582Z,10.00
2019-03-06T18:55:23.229Z,10.00
2019-03-06T18:57:51.746Z,9.90
2019-03-06T19:00:22.592Z,9.90
2019-03-06T19:02:51.225Z,9.90
2019-03-06T19:05:21.230Z,10.00
2019-03-06T19:07:50.806Z,9.90
2019-03-06T19:10:23.187Z,10.00
2019-03-06T19:12:52.178Z,10.00
2019-03-06T19:15:22.338Z,10.10
2019-03-06T19:17:50.902Z,10.00
2019-03-06T19:20:22.427Z,10.10
2019-03-06T19:23:11.796Z,10.00
2019-03-06T19:25:40.285Z,10.00
2019-03-06T19:28:08.749Z,10.00
2019-03-06T19:30:37.333Z,10.00
2019-03-06T19:33:06.004Z,10.00
2019-03-06T19:35:34.523Z,10.00
2019-03-06T19:38:03.018Z,10.00
2019-03-06T19:40:33.437Z,9.90
2019-03-06T19:43:01.702Z,10.00
2019-03-06T19:45:30.213Z,10.00
2019-03-06T19:47:58.737Z,10.00
2019-03-06T19:50:27.878Z,10.00
2019-03-06T19:52:57.785Z,9.90
2019-03-06T19:55:26.350Z,9.90
2019-03-06T19:58:00.646Z,9.90
2019-03-06T20:00:30.405Z,9.90
2019-03-06T20:02:59.645Z,10.00
2019-03-06T20:05:36.303Z,10.00
2019-03-06T20:08:07.948Z,10.00
2019-03-06T20:10:36.536Z,10.00
2019-03-06T20:13:05.300Z,10.10
2019-03-06T20:15:33.976Z,10.10
2019-03-06T20:18:02.625Z,10.10
2019-03-06T20:20:31.141Z,10.10
2019-03-06T20:23:00.407Z,10.10
2019-03-06T20:25:29.059Z,10.00
2019-03-06T20:27:57.600Z,10.00
2019-03-06T20:30:27.652Z,9.90
2019-03-06T20:32:57.201Z,10.00
2019-03-06T20:35:26.648Z,10.00
2019-03-06T20:37:55.508Z,10.00
2019-03-06T20:40:24.260Z,10.00
2019-03-06T20:42:52.839Z,10.10
2019-03-06T20:45:21.971Z,10.00
2019-03-06T20:47:50.618Z,10.10
2019-03-06T20:50:21.971Z,10.10
2019-03-06T20:52:50.703Z,10.10
2019-03-06T20:55:19.361Z,10.10
2019-03-06T20:57:47.943Z,10.10
2019-03-06T21:00:26.682Z,10.00
2019-03-06T21:02:55.344Z,10.10
2019-03-06T21:05:23.938Z,10.10
2019-03-06T21:07:52.461Z,10.10
2019-03-06T21:10:21.320Z,10.20
2019-03-06T21:12:51.166Z,10.20
2019-03-06T21:15:23.754Z,10.20
2019-03-06T21:17:52.295Z,10.20
2019-03-06T21:20:23.910Z,10.30
2019-03-06T21:22:52.620Z,10.30
2019-03-06T21:25:24.204Z,10.20
2019-03-06T21:27:53.029Z,10.20
2019-03-06T21:30:36.189Z,10.30
2019-03-06T21:33:04.698Z,10.20
2019-03-06T21:35:33.317Z,10.20
2019-03-06T21:38:01.922Z,10.30
2019-03-06T21:40:31.023Z,10.40
2019-03-06T21:43:00.422Z,10.30
2019-03-06T21:45:28.938Z,10.30
2019-03-06T21:47:57.756Z,10.40
2019-03-06T21:50:26.463Z,10.40
2019-03-06T21:52:54.961Z,10.50
2019-03-06T21:55:23.553Z,10.40
2019-03-06T21:57:52.075Z,10.40
2019-03-06T22:00:24.314Z,10.50
2019-03-06T22:02:52.874Z,10.50
2019-03-06T22:05:21.389Z,10.40
2019-03-06T22:07:50.755Z,10.50
2019-03-06T22:10:20.044Z,10.40
2019-03-06T22:12:48.594Z,10.50
2019-03-06T22:15:21.853Z,10.50
2019-03-06T22:17:50.297Z,10.40
2019-03-06T22:20:18.865Z,10.40
2019-03-06T22:22:47.388Z,10.40
2019-03-06T22:25:17.136Z,10.50
2019-03-06T22:27:45.732Z,10.50
2019-03-06T22:30:35.107Z,10.50
2019-03-06T22:33:03.677Z,10.50
2019-03-06T22:35:32.116Z,10.60
2019-03-06T22:38:01.925Z,10.60
2019-03-06T22:40:30.438Z,10.60
2019-03-06T22:42:58.966Z,10.50
2019-03-06T22:45:27.460Z,10.60
2019-03-06T22:47:55.966Z,10.50
2019-03-06T22:50:24.402Z,10.50
2019-03-06T22:52:53.021Z,10.50
2019-03-06T22:55:21.601Z,10.50
2019-03-06T22:57:50.053Z,10.50
2019-03-06T23:00:49.914Z,10.60
2019-03-06T23:03:19.662Z,10.50
2019-03-06T23:05:48.241Z,10.60
2019-03-06T23:08:16.841Z,10.70
2019-03-06T23:10:45.432Z,10.70
2019-03-06T23:13:13.884Z,10.70
2019-03-06T23:15:42.518Z,10.70
2019-03-06T23:18:11.120Z,10.80
2019-03-06T23:20:39.626Z,10.70
2019-03-06T23:23:08.198Z,10.80
2019-03-06T23:25:36.714Z,10.80
2019-03-06T23:28:05.382Z,10.90
2019-03-06T23:30:33.972Z,10.90
2019-03-06T23:33:02.429Z,10.90
2019-03-06T23:35:30.941Z,10.90
2019-03-06T23:37:59.456Z,11.00
2019-03-06T23:40:27.932Z,11.10
2019-03-06T23:42:56.431Z,11.20
2019-03-06T23:45:25.041Z,11.20
2019-03-06T23:47:53.473Z,11.20
2019-03-06T23:50:21.920Z,11.10
2019-03-06T23:55:40.953Z,11.20
2019-03-06T23:58:09.390Z,11.20
